Time;durP1;ratioP1;P1;durP2;ratioP2;P2;SDS_P1;SDS_P2;PMS_P1;PMS_P2;Temp;Humidity;BMP_temperature;BMP_pressure;BME280_temperature;BME280_humidity;BME280_pressure;Samples;Min_cycle;Max_cycle;Signal;HPM_P1;HPM_P2
2022/02/10 00:21:12;;;;;;;33.43;24.87;;;;;;;;;;5019929;28;20204;-72
2022/02/10 00:24:06;;;;;;;33.23;24.73;;;;;;;;;;5022491;28;20202;-69
2022/02/10 00:34:44;;;;;;;34.73;23.93;;;;;;;;;;5019827;28;20305;-69
2022/02/10 00:37:12;;;;;;;31.70;24.27;;;;;;;;;;5021373;28;20206;-70
2022/02/10 00:42:21;;;;;;;31.87;24.53;;;;;;;;;;5030259;28;20200;-69
2022/02/10 00:44:46;;;;;;;33.70;26.07;;;;;;;;;;5017210;28;20182;-69
2022/02/10 00:47:11;;;;;;;32.90;24.07;;;;;;;;;;5023286;28;20189;-70
2022/02/10 00:49:37;;;;;;;37.13;25.60;;;;;;;;;;5026970;28;20636;-70
2022/02/10 00:52:04;;;;;;;33.27;25.37;;;;;;;;;;5030151;28;20178;-69
2022/02/10 00:54:30;;;;;;;36.27;26.07;;;;;;;;;;5009133;28;20179;-69
2022/02/10 00:57:02;;;;;;;31.43;24.67;;;;;;;;;;5017200;28;20460;-69
2022/02/10 01:12:50;;;;;;;32.40;22.47;;;;;;;;;;5013256;28;20273;-69
2022/02/10 01:31:39;;;;;;;28.33;17.60;;;;;;;;;;5018157;28;20221;-68
2022/02/10 01:34:04;;;;;;;26.40;18.13;;;;;;;;;;4998515;28;20269;-69
2022/02/10 01:36:30;;;;;;;27.87;18.47;;;;;;;;;;4996341;28;20214;-69
2022/02/10 01:38:55;;;;;;;28.17;18.43;;;;;;;;;;5019462;28;20178;-69
2022/02/10 01:58:08;;;;;;;26.27;17.63;;;;;;;;;;5019084;28;20201;-69
2022/02/10 02:03:26;;;;;;;30.13;19.10;;;;;;;;;;5041720;28;20204;-68
2022/02/10 02:06:00;;;;;;;28.90;17.97;;;;;;;;;;5012240;28;20175;-69
2022/02/10 02:08:27;;;;;;;27.47;18.53;;;;;;;;;;5010865;28;20236;-69
2022/02/10 02:10:53;;;;;;;28.03;17.83;;;;;;;;;;5009796;28;20213;-69
2022/02/10 02:13:19;;;;;;;30.93;19.23;;;;;;;;;;5031367;28;20640;-68
2022/02/10 02:15:44;;;;;;;27.27;18.47;;;;;;;;;;5029946;28;20233;-69
2022/02/10 02:18:09;;;;;;;27.30;18.53;;;;;;;;;;5016122;28;20175;-69
2022/02/10 02:20:34;;;;;;;27.13;18.47;;;;;;;;;;5015069;28;20175;-69
2022/02/10 02:22:59;;;;;;;24.57;17.63;;;;;;;;;;5019186;28;20216;-69
2022/02/10 02:25:25;;;;;;;27.70;19.10;;;;;;;;;;5020060;28;20180;-68
2022/02/10 02:27:53;;;;;;;27.80;17.73;;;;;;;;;;5013815;28;20183;-69
2022/02/10 02:30:25;;;;;;;27.73;17.53;;;;;;;;;;5016368;28;20198;-69
2022/02/10 03:06:01;;;;;;;27.57;18.13;;;;;;;;;;5030370;28;20183;-69
2022/02/10 03:08:27;;;;;;;25.87;18.33;;;;;;;;;;5031914;28;20214;-69
2022/02/10 03:11:07;;;;;;;29.10;19.20;;;;;;;;;;5037584;28;20664;-69
2022/02/10 03:13:37;;;;;;;29.47;19.10;;;;;;;;;;5023153;28;20300;-68
2022/02/10 03:21:30;;;;;;;27.77;18.77;;;;;;;;;;5010138;28;20186;-68
2022/02/10 04:15:41;;;;;;;31.60;18.40;;;;;;;;;;5018115;28;20228;-68
2022/02/10 04:32:12;;;;;;;30.10;18.50;;;;;;;;;;5031368;28;20182;-71
2022/02/10 05:13:19;;;;;;;49.10;25.00;;;;;;;;;;5028086;28;20197;-69
2022/02/10 05:33:59;;;;;;;67.53;26.83;;;;;;;;;;5029133;28;20264;-69
2022/02/10 05:36:29;;;;;;;63.60;28.10;;;;;;;;;;5029041;28;20209;-69
2022/02/10 05:39:06;;;;;;;62.93;25.97;;;;;;;;;;5031797;28;20659;-69
2022/02/10 05:52:55;;;;;;;62.80;25.60;;;;;;;;;;5021143;28;20682;-68
2022/02/10 05:57:54;;;;;;;52.10;23.63;;;;;;;;;;5030741;28;20289;-69
2022/02/10 06:39:45;;;;;;;6.93;4.40;;;;;;;;;;5028712;28;20182;-69
2022/02/10 06:51:51;;;;;;;7.23;4.60;;;;;;;;;;5027946;28;20220;-69
2022/02/10 08:29:52;;;;;;;15.40;8.87;;;;;;;;;;5031755;28;20201;-70
2022/02/10 08:53:19;;;;;;;18.07;11.90;;;;;;;;;;5029437;28;20249;-71
2022/02/10 08:58:39;;;;;;;16.23;11.27;;;;;;;;;;5029978;28;20557;-71
2022/02/10 09:04:03;;;;;;;14.20;9.07;;;;;;;;;;5027881;28;20689;-71
2022/02/10 09:10:03;;;;;;;13.87;8.73;;;;;;;;;;4966789;28;20690;-71
2022/02/10 09:13:28;;;;;;;10.77;8.20;;;;;;;;;;4969358;28;20259;-71
2022/02/10 09:15:35;;;;;;;12.23;9.20;;;;;;;;;;5011627;28;20256;-69
2022/02/10 09:24:35;;;;;;;9.43;6.93;;;;;;;;;;5032615;28;20277;-71
2022/02/10 10:01:29;;;;;;;8.57;2.97;;;;;;;;;;5029607;28;20272;-70
2022/02/10 10:04:09;;;;;;;3.87;2.40;;;;;;;;;;5026061;28;20575;-71
2022/02/10 10:12:31;;;;;;;8.83;3.67;;;;;;;;;;5030066;28;20184;-71
2022/02/10 10:15:43;;;;;;;5.30;2.97;;;;;;;;;;5023760;28;20193;-70
2022/02/10 10:21:00;;;;;;;6.27;3.20;;;;;;;;;;5027749;28;20185;-70
2022/02/10 10:26:39;;;;;;;8.63;3.23;;;;;;;;;;5029753;28;20197;-70
2022/02/10 10:54:27;;;;;;;7.97;1.57;;;;;;;;;;5028468;28;20591;-71
2022/02/10 10:56:55;;;;;;;9.63;2.20;;;;;;;;;;5027959;28;20289;-70
2022/02/10 11:38:03;;;;;;;4.33;2.57;;;;;;;;;;5034682;28;20213;-70
2022/02/10 11:40:29;;;;;;;5.27;1.83;;;;;;;;;;5027947;28;20644;-70
2022/02/10 11:43:25;;;;;;;7.20;2.00;;;;;;;;;;5000977;28;20198;-70
2022/02/10 11:46:16;;;;;;;5.50;1.50;;;;;;;;;;5028306;28;20217;-70
2022/02/10 12:39:12;;;;;;;6.93;2.10;;;;;;;;;;5030141;28;20224;-71
2022/02/10 13:03:10;;;;;;;4.77;1.27;;;;;;;;;;5032212;28;20213;-71
2022/02/10 13:31:31;;;;;;;7.10;1.43;;;;;;;;;;5024128;28;20190;-70
2022/02/10 13:48:05;;;;;;;6.30;1.53;;;;;;;;;;5030320;28;20186;-70
2022/02/10 14:09:44;;;;;;;3.67;1.30;;;;;;;;;;5031790;28;20235;-70
2022/02/10 14:17:08;;;;;;;3.70;1.57;;;;;;;;;;5030792;28;20210;-70
2022/02/10 14:27:18;;;;;;;4.60;1.97;;;;;;;;;;5029790;28;20567;-70
2022/02/10 14:29:43;;;;;;;3.67;1.30;;;;;;;;;;5029208;28;20241;-70
2022/02/10 14:32:12;;;;;;;5.00;1.50;;;;;;;;;;5030624;28;20640;-70
2022/02/10 14:34:38;;;;;;;4.90;1.40;;;;;;;;;;5029749;28;20247;-70
2022/02/10 15:21:25;;;;;;;5.03;1.63;;;;;;;;;;5029684;28;20262;-70
2022/02/10 15:54:24;;;;;;;5.53;1.30;;;;;;;;;;5035358;28;20343;-69
2022/02/10 16:17:35;;;;;;;7.37;1.57;;;;;;;;;;5030132;28;20268;-69
2022/02/10 16:20:07;;;;;;;6.53;1.80;;;;;;;;;;5027707;28;20303;-69
2022/02/10 16:22:37;;;;;;;6.37;2.43;;;;;;;;;;5029266;28;20694;-69
2022/02/10 16:25:06;;;;;;;9.33;1.90;;;;;;;;;;5013883;28;20228;-69
2022/02/10 16:27:33;;;;;;;6.10;1.63;;;;;;;;;;5033153;28;20182;-69
2022/02/10 16:30:03;;;;;;;5.20;2.13;;;;;;;;;;5027638;28;20189;-69
2022/02/10 16:32:29;;;;;;;7.10;2.17;;;;;;;;;;5031987;28;20449;-69
2022/02/10 16:34:56;;;;;;;8.90;1.90;;;;;;;;;;5031623;28;20178;-69
2022/02/10 16:37:21;;;;;;;7.27;1.83;;;;;;;;;;5033181;28;20209;-70
2022/02/10 16:39:48;;;;;;;10.07;2.13;;;;;;;;;;5029888;28;20174;-69
2022/02/10 16:42:14;;;;;;;9.20;3.97;;;;;;;;;;5032506;28;20190;-70
2022/02/10 16:44:40;;;;;;;7.87;2.33;;;;;;;;;;5031546;28;20167;-69
2022/02/10 16:47:06;;;;;;;5.13;1.60;;;;;;;;;;5032880;28;20618;-70
2022/02/10 16:49:32;;;;;;;8.40;1.97;;;;;;;;;;5012893;28;20185;-70
2022/02/10 16:51:57;;;;;;;6.97;2.50;;;;;;;;;;5032262;28;20265;-70
2022/02/10 16:54:38;;;;;;;9.33;2.10;;;;;;;;;;5031012;28;20178;-70
2022/02/10 16:57:08;;;;;;;19.17;3.50;;;;;;;;;;5012825;28;20206;-70
2022/02/10 16:59:49;;;;;;;7.77;2.53;;;;;;;;;;5016325;28;20652;-70
2022/02/10 17:16:51;;;;;;;7.40;3.20;;;;;;;;;;5035680;28;20227;-70
2022/02/10 17:26:46;;;;;;;6.87;2.73;;;;;;;;;;5031818;28;20200;-70
2022/02/10 17:29:30;;;;;;;6.53;2.20;;;;;;;;;;5033113;28;20182;-70
2022/02/10 17:32:12;;;;;;;8.03;2.63;;;;;;;;;;5030925;28;20202;-70
2022/02/10 17:35:33;;;;;;;7.80;3.30;;;;;;;;;;5028999;28;20189;-70
2022/02/10 17:53:38;;;;;;;6.63;2.07;;;;;;;;;;5035057;28;20209;-68
2022/02/10 17:56:04;;;;;;;7.50;2.13;;;;;;;;;;5030703;28;20505;-68
2022/02/10 17:58:29;;;;;;;13.20;2.57;;;;;;;;;;5023318;28;20229;-68
2022/02/10 18:00:56;;;;;;;7.47;1.83;;;;;;;;;;5030281;28;20170;-68
2022/02/10 18:03:21;;;;;;;6.23;1.97;;;;;;;;;;5028810;28;20277;-68
2022/02/10 18:08:24;;;;;;;9.00;1.80;;;;;;;;;;5020569;28;20224;-68
2022/02/10 18:16:32;;;;;;;10.33;2.20;;;;;;;;;;4982130;28;20262;-68
2022/02/10 18:19:35;;;;;;;8.77;2.43;;;;;;;;;;5028733;28;20174;-68
2022/02/10 18:24:46;;;;;;;7.90;2.53;;;;;;;;;;5025391;28;20184;-70
2022/02/10 19:10:05;;;;;;;5.23;1.80;;;;;;;;;;5027925;28;20693;-70
2022/02/10 19:15:33;;;;;;;11.60;2.43;;;;;;;;;;5009128;28;20218;-70
2022/02/10 19:17:51;;;;;;;5.37;2.27;;;;;;;;;;5007908;28;20600;-67
2022/02/10 19:20:19;;;;;;;9.17;2.43;;;;;;;;;;5010299;28;20183;-69
2022/02/10 19:22:45;;;;;;;10.27;2.37;;;;;;;;;;5010971;28;20198;-68
2022/02/10 19:25:12;;;;;;;5.27;1.83;;;;;;;;;;5009567;28;20540;-68
2022/02/10 19:27:37;;;;;;;7.17;1.90;;;;;;;;;;5009836;28;20178;-68
2022/02/10 19:30:06;;;;;;;7.50;2.00;;;;;;;;;;5010069;28;20191;-68
2022/02/10 19:32:32;;;;;;;7.57;2.60;;;;;;;;;;4990436;28;20190;-68
2022/02/10 19:34:58;;;;;;;6.47;1.93;;;;;;;;;;5010134;28;20195;-70
2022/02/10 19:37:26;;;;;;;5.53;1.67;;;;;;;;;;4994575;28;20203;-68
2022/02/10 19:39:56;;;;;;;7.57;2.20;;;;;;;;;;5010132;28;20182;-68
2022/02/10 19:42:22;;;;;;;11.33;2.93;;;;;;;;;;4991845;28;20179;-69
2022/02/10 19:44:47;;;;;;;6.40;2.20;;;;;;;;;;5013237;28;20206;-69
2022/02/10 19:47:12;;;;;;;4.77;2.33;;;;;;;;;;5018735;28;20528;-69
2022/02/10 19:49:40;;;;;;;5.90;1.60;;;;;;;;;;5017445;28;20211;-69
2022/02/10 19:52:06;;;;;;;7.57;2.10;;;;;;;;;;5013894;28;20650;-69
2022/02/10 19:54:37;;;;;;;6.97;2.00;;;;;;;;;;5011963;28;20605;-70
2022/02/10 19:57:02;;;;;;;9.60;2.40;;;;;;;;;;5025471;28;20378;-70
2022/02/10 19:59:30;;;;;;;7.27;2.20;;;;;;;;;;5019307;28;20178;-69
2022/02/10 20:01:56;;;;;;;10.23;2.17;;;;;;;;;;5017431;28;20269;-68
2022/02/10 20:04:23;;;;;;;7.13;2.10;;;;;;;;;;4986170;28;20290;-68
2022/02/10 20:06:48;;;;;;;7.73;2.10;;;;;;;;;;5016480;28;20564;-69
2022/02/10 20:09:14;;;;;;;5.93;1.80;;;;;;;;;;5012957;28;20182;-69
2022/02/10 20:11:39;;;;;;;6.13;2.30;;;;;;;;;;5021776;28;20202;-69
2022/02/10 20:14:05;;;;;;;5.90;2.67;;;;;;;;;;5014583;28;20881;-69
2022/02/10 20:16:30;;;;;;;4.60;1.90;;;;;;;;;;5019534;28;20719;-68
2022/02/10 20:18:55;;;;;;;5.00;1.97;;;;;;;;;;5018088;28;20183;-68
2022/02/10 20:21:20;;;;;;;4.50;2.33;;;;;;;;;;5013902;28;20206;-68
2022/02/10 20:23:46;;;;;;;10.53;3.37;;;;;;;;;;5016776;28;20233;-68
2022/02/10 20:26:12;;;;;;;10.43;2.67;;;;;;;;;;4994880;28;20652;-67
2022/02/10 20:28:38;;;;;;;4.57;2.60;;;;;;;;;;5019601;28;20171;-68
2022/02/10 20:31:03;;;;;;;11.53;2.40;;;;;;;;;;5009749;28;20613;-69
2022/02/10 20:33:30;;;;;;;8.07;2.47;;;;;;;;;;5012692;28;20218;-69
2022/02/10 20:35:58;;;;;;;5.53;2.40;;;;;;;;;;5014561;28;20175;-68
2022/02/10 20:38:24;;;;;;;7.17;2.60;;;;;;;;;;5028884;28;20218;-68
2022/02/10 20:40:55;;;;;;;4.93;2.53;;;;;;;;;;5028552;28;20282;-68
2022/02/10 20:43:20;;;;;;;4.70;2.40;;;;;;;;;;5028926;28;20194;-67
2022/02/10 20:45:53;;;;;;;8.27;2.57;;;;;;;;;;5024775;28;20207;-68
2022/02/10 20:48:18;;;;;;;8.97;3.00;;;;;;;;;;5012703;28;20190;-66
2022/02/10 20:50:46;;;;;;;5.70;2.57;;;;;;;;;;5026004;28;20179;-69
2022/02/10 20:53:11;;;;;;;9.27;2.53;;;;;;;;;;5025399;28;20260;-68
2022/02/10 20:55:36;;;;;;;6.13;2.60;;;;;;;;;;5015343;28;20210;-69
2022/02/10 20:58:01;;;;;;;4.63;2.50;;;;;;;;;;5013234;28;20214;-69
2022/02/10 21:00:30;;;;;;;10.30;2.80;;;;;;;;;;5015068;28;20174;-69
2022/02/10 21:02:56;;;;;;;8.23;3.23;;;;;;;;;;4996198;28;20198;-68
2022/02/10 21:05:31;;;;;;;4.63;2.10;;;;;;;;;;5014471;28;20648;-69
2022/02/10 21:08:08;;;;;;;7.37;2.50;;;;;;;;;;4997674;28;20175;-69
2022/02/10 21:10:35;;;;;;;11.27;2.63;;;;;;;;;;5008417;28;20175;-69
2022/02/10 21:13:01;;;;;;;6.77;2.77;;;;;;;;;;4996710;28;20206;-69
2022/02/10 21:15:30;;;;;;;7.73;2.27;;;;;;;;;;5015134;28;20193;-68
2022/02/10 21:18:01;;;;;;;6.90;2.60;;;;;;;;;;5014386;28;20755;-68
2022/02/10 21:20:29;;;;;;;7.63;2.63;;;;;;;;;;4997829;28;20247;-68
2022/02/10 21:23:20;;;;;;;5.67;2.60;;;;;;;;;;4997060;28;20203;-68
2022/02/10 21:25:46;;;;;;;7.87;1.90;;;;;;;;;;5014411;28;20629;-68
2022/02/10 21:30:39;;;;;;;4.07;1.67;;;;;;;;;;5012974;28;20194;-67
2022/02/10 21:33:07;;;;;;;11.67;2.20;;;;;;;;;;5013448;28;20199;-68
2022/02/10 21:38:17;;;;;;;7.50;2.03;;;;;;;;;;5012951;28;20947;-69
2022/02/10 21:41:18;;;;;;;5.83;2.00;;;;;;;;;;5015641;28;20183;-68
2022/02/10 21:59:46;;;;;;;4.63;1.43;;;;;;;;;;5013365;28;20608;-70
2022/02/10 22:08:01;;;;;;;9.57;2.00;;;;;;;;;;5010515;28;20194;-69
2022/02/10 22:10:24;;;;;;;5.33;1.60;;;;;;;;;;5010654;28;20268;-69
2022/02/10 22:20:54;;;;;;;7.33;1.80;;;;;;;;;;5013506;28;20328;-68
2022/02/10 22:23:22;;;;;;;5.50;2.07;;;;;;;;;;4993666;28;20280;-69
2022/02/10 22:25:48;;;;;;;6.93;1.70;;;;;;;;;;5012418;28;20548;-69
2022/02/10 22:28:32;;;;;;;5.67;1.87;;;;;;;;;;5013398;28;20183;-69
2022/02/10 22:36:15;;;;;;;8.60;3.57;;;;;;;;;;5009120;28;20707;-68
2022/02/10 22:38:41;;;;;;;9.67;1.90;;;;;;;;;;5011196;28;20173;-71
2022/02/10 22:41:11;;;;;;;9.50;2.00;;;;;;;;;;4985384;28;20569;-68
2022/02/10 22:43:40;;;;;;;7.07;2.37;;;;;;;;;;5010856;28;20664;-69
2022/02/10 22:46:05;;;;;;;7.83;1.80;;;;;;;;;;5011894;28;20207;-68
2022/02/10 22:48:30;;;;;;;5.80;1.90;;;;;;;;;;5012943;28;20189;-68
2022/02/10 22:50:56;;;;;;;6.37;1.63;;;;;;;;;;5011719;28;20186;-69
2022/02/10 22:53:21;;;;;;;5.90;1.63;;;;;;;;;;5005620;28;20238;-69
2022/02/10 22:55:46;;;;;;;8.13;1.93;;;;;;;;;;5009911;28;20209;-69
2022/02/10 22:58:11;;;;;;;8.17;1.60;;;;;;;;;;5008791;28;20238;-69
2022/02/10 23:00:46;;;;;;;12.00;1.77;;;;;;;;;;5009139;28;20177;-69
2022/02/10 23:03:11;;;;;;;5.27;1.70;;;;;;;;;;5005337;28;20197;-68
2022/02/10 23:05:38;;;;;;;8.03;1.70;;;;;;;;;;5010981;28;20171;-69
2022/02/10 23:08:04;;;;;;;5.13;1.40;;;;;;;;;;4993563;28;20575;-69
2022/02/10 23:10:47;;;;;;;8.27;1.73;;;;;;;;;;5005566;28;20464;-69
2022/02/10 23:13:28;;;;;;;4.70;1.67;;;;;;;;;;5006500;28;20234;-69
2022/02/10 23:15:55;;;;;;;6.90;1.60;;;;;;;;;;5008498;28;20606;-69
2022/02/10 23:18:24;;;;;;;4.57;1.73;;;;;;;;;;5007052;28;20241;-69
2022/02/10 23:20:50;;;;;;;3.70;1.70;;;;;;;;;;5005181;28;20265;-69
2022/02/10 23:23:16;;;;;;;3.87;1.70;;;;;;;;;;5008632;28;20211;-69
2022/02/10 23:25:43;;;;;;;6.77;2.10;;;;;;;;;;5015667;28;20236;-70
2022/02/10 23:28:09;;;;;;;5.13;1.63;;;;;;;;;;5014916;28;20705;-68
2022/02/10 23:30:34;;;;;;;7.53;1.63;;;;;;;;;;5006637;28;20191;-68
2022/02/10 23:33:19;;;;;;;6.50;1.80;;;;;;;;;;5017900;28;20707;-69
2022/02/10 23:36:34;;;;;;;4.13;1.33;;;;;;;;;;5002721;28;20187;-69
2022/02/10 23:44:15;;;;;;;7.27;1.73;;;;;;;;;;5008433;28;20225;-69
2022/02/10 23:46:41;;;;;;;5.37;1.63;;;;;;;;;;5001683;28;20175;-70
2022/02/10 23:49:06;;;;;;;4.07;1.40;;;;;;;;;;4999312;28;20187;-68
2022/02/10 23:51:36;;;;;;;14.83;1.80;;;;;;;;;;5026227;28;20173;-69
2022/02/10 23:54:01;;;;;;;6.50;2.23;;;;;;;;;;5032190;28;20191;-69
2022/02/10 23:56:32;;;;;;;5.43;1.50;;;;;;;;;;5031981;28;20190;-70
2022/02/10 23:59:11;;;;;;;10.10;1.93;;;;;;;;;;5014700;28;20203;-69
